Latest Weather Observations for Whyalla

IDS60801

Issued at 7:21 pm CST Monday 24 June 2019 (issued every 10 minutes, with the page automatically refreshed every 10 minutes)

About weather observations | Map of weather stations | Latest weather observations for SA | Other Formats
Station Details ID: 018120 Name: WHYALLA AERO Lat: -33.05 Lon: 137.52 Height: 9.3 m
Data from the previous 72 hours. | See also: Recent months at Whyalla
Date/Time
CST
Temp
°C
App
Temp
°C
Dew
Point
°C
Rel
Hum
%
Delta-T
°C
Wind Press
QNH
hPa
Press
MSL
hPa
Rain since
9am
mm
Dir  Spd
km/h
Gust
km/h
Spd
kts
Gust
kts
24/07:00pm 11.5 6.3 0.0 45 4.7 N 17 22 9 12 1027.7 1027.7 0.0
24/06:30pm 11.6 6.4 -0.2 44 4.8 N 17 24 9 13 1027.2 1027.2 0.0
24/06:00pm 10.9 7.2 0.0 47 4.4 N 9 13 5 7 1027.2 1027.2 0.0
24/05:30pm 11.6 7.0 -0.9 42 5.0 N 13 17 7 9 1026.9 1026.9 0.0
24/05:00pm 11.6 5.8 -1.5 40 5.2 N 19 24 10 13 1027.0 1027.0 0.0
24/04:30pm 12.0 5.9 -2.2 37 5.5 N 20 32 11 17 1026.9 1026.9 0.0
24/04:00pm 12.4 6.2 -3.0 34 5.9 N 20 30 11 16 1026.4 1026.4 0.0
24/03:30pm 12.7 5.7 -3.1 33 6.0 N 24 32 13 17 1026.4 1026.4 0.0
24/03:00pm 12.7 6.2 -2.7 34 5.9 N 22 33 12 18 1026.5 1026.5 0.0
24/02:30pm 13.1 6.2 -2.4 34 6.0 NNE 24 32 13 17 1026.8 1026.8 0.0
24/02:00pm 13.2 6.4 -1.5 36 5.9 NNE 24 33 13 18 1027.0 1027.0 0.0
24/01:30pm 12.8 5.3 -1.1 38 5.6 N 28 35 15 19 1027.6 1027.6 0.0
24/01:00pm 12.7 5.6 -1.2 38 5.6 N 26 33 14 18 1028.2 1028.2 0.0
24/12:30pm 11.8 6.2 0.9 47 4.5 NNW 20 28 11 15 1028.9 1028.9 0.0
24/12:00pm 10.4 4.8 0.2 49 4.1 N 19 33 10 18 1029.2 1029.2 0.0
24/11:30am 10.2 5.1 0.8 52 3.8 N 17 24 9 13 1029.3 1029.3 0.0
24/11:00am 8.8 5.1 2.4 64 2.7 NNW 11 13 6 7 1029.9 1029.9 0.0
24/10:30am 7.9 3.8 2.2 67 2.3 NNW 13 15 7 8 1029.8 1029.8 0.0
24/10:00am 6.8 3.4 1.9 71 2.0 NNW 9 11 5 6 1030.1 1030.1 0.0
24/09:30am 5.2 1.6 0.6 72 1.8 NW 9 13 5 7 1030.3 1030.3 0.0
24/09:00am 4.3 0.4 1.2 80 1.2 WNW 11 15 6 8 1030.4 1030.4 0.0
24/08:30am 3.2 0.0 0.9 85 0.9 NW 7 9 4 5 1030.1 1030.1 0.0
24/08:00am 0.7 -2.7 -0.4 92 0.4 NW 7 9 4 5 1029.8 1029.8 0.0
24/07:30am -0.9 -4.5 -2.0 92 0.3 WNW 7 9 4 5 1029.7 1029.7 0.0
24/07:00am -0.6 -4.9 -1.7 92 0.4 WNW 11 13 6 7 1029.5 1029.5 0.0
24/06:30am -0.5 -4.1 -1.8 91 0.4 WNW 7 13 4 7 1029.3 1029.3 0.0
24/06:00am -0.3 -3.8 -1.6 91 0.4 NW 7 11 4 6 1029.2 1029.2 0.0
24/05:30am -0.2 -3.7 -1.6 90 0.5 NW 7 11 4 6 1029.3 1029.3 0.0
24/05:00am -0.4 -4.3 -1.8 90 0.5 NNW 9 11 5 6 1029.0 1029.0 0.0
24/04:30am -0.5 -4.9 -2.1 89 0.5 NNW 11 13 6 7 1029.3 1029.3 0.0
24/04:00am -0.5 -4.1 -2.1 89 0.5 NW 7 9 4 5 1029.5 1029.5 0.0
24/03:30am -0.1 -4.0 -1.8 88 0.6 NW 9 13 5 7 1029.5 1029.5 0.0
24/03:00am 0.3 -4.0 -1.4 88 0.6 NW 11 13 6 7 1029.2 1029.2 0.0
24/02:30am 0.9 -2.6 -1.7 83 0.9 NNE 7 11 4 6 1029.1 1029.1 0.0
24/02:00am 1.7 -2.1 -0.5 85 0.8 NNW 9 11 5 6 1029.0 1029.0 0.0
24/01:30am 2.2 -1.2 -0.7 81 1.0 NNW 7 9 4 5 1028.8 1028.8 0.0
24/01:00am 3.5 -0.2 -0.3 76 1.4 N 9 11 5 6 1028.7 1028.7 0.0
24/12:30am 4.2 0.3 0.9 79 1.3 N 11 13 6 7 1029.0 1029.0 0.0
24/12:00am 5.7 1.9 1.8 76 1.5 NNE 11 13 6 7 1029.2 1029.2 0.0
 
Date/Time
CST
Temp
°C
App
Temp
°C
Dew
Point
°C
Rel
Hum
%
Delta-T
°C
Wind Press
QNH
hPa
Press
MSL
hPa
Rain since
9am
mm
Dir  Spd
km/h
Gust
km/h
Spd
kts
Gust
kts
23/11:30pm 6.0 2.6 1.7 74 1.7 NE 9 13 5 7 1029.3 1029.3 0.0
23/11:00pm 6.5 2.9 2.8 77 1.5 NNE 11 15 6 8 1029.6 1029.6 0.0
23/10:30pm 4.1 0.6 1.3 82 1.1 NE 9 15 5 8 1029.7 1029.7 0.0
23/10:00pm 2.6 -1.0 0.3 85 0.9 NE 9 11 5 6 1029.6 1029.6 0.0
23/09:30pm 2.7 0.7 -0.1 82 1.0 CALM 0 0 0 0 1029.8 1029.8 0.0
23/09:00pm 3.2 1.3 0.3 81 1.1 CALM 0 0 0 0 1029.6 1029.6 0.0
23/08:30pm 3.6 0.4 0.5 80 1.2 NW 7 9 4 5 1029.5 1029.5 0.0
23/08:00pm 4.3 2.5 1.0 79 1.3 CALM 0 0 0 0 1029.5 1029.5 0.0
23/07:30pm 5.0 2.8 0.9 75 1.6 ESE 2 6 1 3 1029.5 1029.5 0.0
23/07:00pm 6.4 3.6 1.9 73 1.8 SSE 6 7 3 4 1029.5 1029.5 0.0
23/06:30pm 7.6 4.3 2.3 69 2.2 SSE 9 11 5 6 1029.3 1029.3 0.0
23/06:00pm 8.5 5.1 2.1 64 2.6 SSE 9 11 5 6 1029.2 1029.2 0.0
23/05:30pm 9.7 6.4 2.3 60 3.1 SSE 9 11 5 6 1028.9 1028.9 0.0
23/05:00pm 11.4 8.0 1.6 51 4.1 SE 9 13 5 7 1028.8 1028.8 0.0
23/04:30pm 12.5 8.8 0.0 42 5.1 ESE 9 13 5 7 1028.8 1028.8 0.0
23/04:00pm 12.8 8.8 0.2 42 5.2 ESE 11 15 6 8 1028.6 1028.6 0.0
23/03:30pm 12.9 8.9 0.3 42 5.2 ESE 11 15 6 8 1028.5 1028.5 0.0
23/03:00pm 12.7 8.2 -0.5 40 5.3 ESE 13 19 7 10 1028.4 1028.4 0.0
23/02:30pm 13.0 8.5 -0.3 40 5.4 ESE 13 19 7 10 1028.2 1028.2 0.0
23/02:00pm 12.7 8.1 -1.2 38 5.6 ESE 13 19 7 10 1028.6 1028.6 0.0
23/01:30pm 12.5 8.9 2.7 51 4.3 ESE 11 15 6 8 1028.8 1028.8 0.0
23/01:00pm 12.5 8.6 3.2 53 4.1 E 13 15 7 8 1029.1 1029.1 0.0
23/12:30pm 12.5 8.7 4.0 56 3.8 ESE 13 19 7 10 1029.4 1029.4 0.0
23/12:00pm 12.5 8.8 4.2 57 3.7 ESE 13 19 7 10 1029.9 1029.9 0.0
23/11:30am 12.7 10.3 5.1 60 3.5 SE 7 15 4 8 1030.4 1030.4 0.0
23/11:00am 12.6 10.0 3.0 52 4.2 N 6 9 3 5 1030.9 1030.9 0.0
23/10:30am 11.8 9.6 5.4 65 2.9 NNE 6 9 3 5 1031.1 1031.1 0.0
23/10:00am 10.5 8.8 6.1 74 2.0 NNW 4 6 2 3 1031.2 1031.2 0.0
23/09:30am 8.0 5.8 5.5 84 1.1 NNW 6 7 3 4 1031.2 1031.2 0.0
23/09:00am 5.5 3.1 4.3 92 0.5 NW 6 9 3 5 1031.0 1031.0 0.0
23/08:30am 3.2 0.0 2.8 97 0.2 NNW 9 9 5 5 1030.7 1030.7 0.0
23/08:00am 0.7 -2.4 0.4 98 0.1 NW 6 9 3 5 1030.7 1030.7 0.0
23/07:30am -0.1 -3.9 -0.5 97 0.1 NW 9 11 5 6 1030.6 1030.6 0.0
23/07:00am 0.2 -3.1 -0.2 97 0.1 NW 7 9 4 5 1030.4 1030.4 0.0
23/06:30am 0.3 -3.8 -0.3 96 0.2 NW 11 13 6 7 1030.1 1030.1 0.0
23/06:00am 0.2 -3.6 -0.4 96 0.2 NW 9 11 5 6 1029.9 1029.9 0.0
23/05:30am 0.3 -3.1 -0.3 96 0.2 NW 7 9 4 5 1029.9 1029.9 0.0
23/05:00am 0.3 -3.5 -0.4 95 0.2 NW 9 11 5 6 1029.7 1029.7 0.0
23/04:30am 0.7 -3.0 0.0 95 0.3 NW 9 9 5 5 1029.7 1029.7 0.0
23/04:00am 0.8 -2.9 -0.1 94 0.3 NW 9 11 5 6 1029.8 1029.8 0.0
23/03:30am 1.2 -2.5 0.2 93 0.4 NW 9 11 5 6 1029.6 1029.6 0.0
23/03:00am 1.6 -2.0 0.7 94 0.3 NW 9 11 5 6 1029.3 1029.3 0.0
23/02:30am 1.1 -2.6 0.1 93 0.4 NW 9 11 5 6 1029.3 1029.3 0.0
23/02:00am 1.4 -1.9 0.2 92 0.4 NW 7 9 4 5 1029.0 1029.0 0.0
23/01:30am 1.9 -2.1 0.7 92 0.4 NNW 11 13 6 7 1029.2 1029.2 0.0
23/01:00am 1.7 -1.9 0.4 91 0.5 NW 9 11 5 6 1029.5 1029.5 0.0
23/12:30am 2.7 -0.3 1.1 89 0.6 WNW 6 7 3 4 1029.5 1029.5 0.0
23/12:00am 2.7 -0.8 1.2 90 0.6 WNW 9 11 5 6 1029.6 1029.6 0.0
 
Date/Time
CST
Temp
°C
App
Temp
°C
Dew
Point
°C
Rel
Hum
%
Delta-T
°C
Wind Press
QNH
hPa
Press
MSL
hPa
Rain since
9am
mm
Dir  Spd
km/h
Gust
km/h
Spd
kts
Gust
kts
22/11:30pm 3.2 -0.6 1.6 89 0.6 NW 11 15 6 8 1029.7 1029.7 0.0
22/11:00pm 3.5 0.1 2.0 90 0.6 WNW 9 15 5 8 1029.8 1029.8 0.0
22/10:30pm 3.2 -0.7 1.4 88 0.7 NW 11 13 6 7 1029.6 1029.6 0.0
22/10:00pm 4.2 1.1 1.6 83 1.0 NNW 7 9 4 5 1029.5 1029.5 0.0
22/09:30pm 4.2 1.2 1.9 85 0.9 NW 7 9 4 5 1029.6 1029.6 0.0
22/09:00pm 4.1 0.7 1.6 84 1.0 WNW 9 9 5 5 1029.5 1029.5 0.0
22/08:30pm 5.1 1.7 2.1 81 1.2 WSW 9 9 5 5 1029.5 1029.5 0.0
22/08:00pm 5.9 3.1 2.9 81 1.2 WSW 7 11 4 6 1029.5 1029.5 0.0
22/07:30pm 6.4 3.6 3.0 79 1.4 SW 7 9 4 5 1029.5 1029.5 0.0
22/07:00pm 8.3 5.3 4.1 75 1.8 ESE 9 11 5 6 1029.3 1029.3 0.0
22/06:30pm 8.9 5.5 4.1 72 2.1 ESE 11 11 6 6 1029.2 1029.2 0.0
22/06:00pm 9.5 6.8 3.7 67 2.5 SSE 7 9 4 5 1029.1 1029.1 0.0
22/05:30pm 10.6 7.7 2.4 57 3.5 SSE 7 9 4 5 1029.1 1029.1 0.0
22/05:00pm 12.4 9.6 2.0 49 4.5 SE 6 7 3 4 1029.1 1029.1 0.0
22/04:30pm 13.0 9.2 1.7 46 4.8 ESE 11 13 6 7 1029.0 1029.0 0.0
22/04:00pm 13.2 9.1 2.1 47 4.8 ESE 13 15 7 8 1028.9 1028.9 0.0
22/03:30pm 13.6 10.3 2.5 47 4.8 SE 9 13 5 7 1028.8 1028.8 0.0
22/03:00pm 13.7 10.5 2.9 48 4.8 SE 9 17 5 9 1028.8 1028.8 0.0
22/02:30pm 13.1 9.4 2.1 47 4.7 SE 11 15 6 8 1028.8 1028.8 0.0
22/02:00pm 13.6 10.6 1.9 45 5.1 SE 7 13 4 7 1029.0 1029.0 0.0
22/01:30pm 13.4 9.6 2.0 46 4.9 ESE 11 15 6 8 1029.2 1029.2 0.0
22/01:00pm 13.3 10.3 1.9 46 4.9 ENE 7 13 4 7 1029.7 1029.7 0.0
22/12:30pm 13.1 10.1 1.1 44 5.1 N 6 11 3 6 1030.4 1030.4 0.0
22/12:00pm 12.9 9.4 1.0 44 5.0 NNE 9 17 5 9 1030.9 1030.9 0.0
22/11:30am 12.5 9.0 1.5 47 4.6 N 9 13 5 7 1031.4 1031.4 0.0
22/11:00am 12.0 8.5 1.1 47 4.6 NNW 9 11 5 6 1031.7 1031.7 0.0
22/10:30am 11.6 8.8 3.4 57 3.6 NNW 7 9 4 5 1031.9 1031.9 0.0
22/10:00am 10.8 8.5 4.7 66 2.8 WNW 6 7 3 4 1031.8 1031.8 0.0
22/09:30am 9.9 8.0 4.9 71 2.2 NW 4 7 2 4 1031.8 1031.8 0.0
22/09:00am 9.0 7.1 4.8 75 1.9 NNW 4 7 2 4 1031.4 1031.4 0.0
22/08:30am 8.5 7.4 4.9 78 1.6 CALM 0 0 0 0 1031.2 1031.2 0.0
22/08:00am 8.4 5.9 4.8 78 1.6 NNW 7 11 4 6 1030.9 1030.9 0.0
22/07:30am 8.5 6.9 4.5 76 1.7 NW 2 9 1 5 1030.5 1030.5 0.0
22/07:00am 8.8 7.1 4.0 72 2.1 NW 2 7 1 4 1030.2 1030.2 0.0
22/06:30am 8.7 5.7 4.1 73 2.0 NW 9 9 5 5 1029.8 1029.8 0.0
22/06:00am 9.4 6.3 3.8 68 2.4 NNW 9 11 5 6 1029.4 1029.4 0.0
22/05:30am 9.5 6.8 3.7 67 2.5 WNW 7 9 4 5 1029.3 1029.3 0.0
22/05:00am 9.6 6.8 3.4 65 2.7 NNW 7 13 4 7 1029.0 1029.0 0.0
22/04:30am 10.7 7.6 3.5 61 3.1 ENE 9 13 5 7 1028.9 1028.9 0.0
22/04:00am 10.3 7.8 3.8 64 2.9 NE 6 9 3 5 1028.9 1028.9 0.0
22/03:30am 10.1 7.5 4.0 66 2.7 ENE 7 9 4 5 1029.0 1029.0 0.0
22/03:00am 9.8 7.3 4.8 71 2.2 ENE 7 9 4 5 1029.1 1029.1 0.0
22/02:30am 9.4 6.6 5.2 75 1.9 ENE 9 11 5 6 1029.2 1029.2 0.0
22/02:00am 8.8 6.7 5.7 81 1.4 NNE 6 7 3 4 1029.3 1029.3 0.0
22/01:30am 8.4 6.6 5.3 81 1.4 NNW 4 6 2 3 1029.5 1029.5 0.0
22/01:00am 8.5 6.1 5.3 80 1.4 N 7 7 4 4 1029.5 1029.5 0.0
22/12:30am 8.2 5.8 5.1 81 1.4 NW 7 9 4 5 1029.4 1029.4 0.0
22/12:00am 9.4 8.5 5.9 79 1.6 CALM 0 0 0 0 1029.5 1029.5 0.0
 
Date/Time
CST
Temp
°C
App
Temp
°C
Dew
Point
°C
Rel
Hum
%
Delta-T
°C
Wind Press
QNH
hPa
Press
MSL
hPa
Rain since
9am
mm
Dir  Spd
km/h
Gust
km/h
Spd
kts
Gust
kts
21/11:30pm 9.1 7.4 5.7 79 1.5 SW 4 7 2 4 1029.6 1029.6 0.0
21/11:00pm 9.4 8.4 5.4 76 1.8 CALM 0 6 0 3 1029.8 1029.8 0.0
21/10:30pm 10.1 9.1 5.7 74 2.0 CALM 0 0 0 0 1029.9 1029.9 0.0
21/10:00pm 11.5 9.8 5.8 68 2.6 NE 4 6 2 3 1030.0 1030.0 0.0
21/09:30pm 12.1 9.1 5.9 66 2.9 NE 11 13 6 7 1030.0 1030.0 0.0
21/09:00pm 12.0 9.1 6.3 68 2.7 NE 11 15 6 8 1030.1 1030.1 0.0
21/08:30pm 11.5 8.6 4.7 63 3.1 ENE 9 9 5 5 1030.0 1030.0 0.0
21/08:00pm 12.1 9.7 4.3 59 3.5 NNE 6 7 3 4 1029.8 1029.8 0.0
21/07:30pm 12.1 9.5 4.1 58 3.6 NE 7 9 4 5 1029.5 1029.5 0.0

Other formats

Comma delimited format used in spreadsheet applications
http://www.bom.gov.au/fwo/IDS60801/IDS60801.95664.axf

JavaScript Object Notation format (JSON) in row-major order
http://www.bom.gov.au/fwo/IDS60801/IDS60801.95664.json

Data quality

Most of these data are generated automatically and are frequently updated. Quality checks on data are not normally performed. It is possible for incorrect values to appear. Refer to information at About Latest Weather Observations and please check the disclaimer before using these data.